createdAt,value
2023-05-13T00:03:35.090Z,8.65
2023-05-13T00:13:37.268Z,8.52
2023-05-13T00:23:39.369Z,8.39
2023-05-13T00:33:41.410Z,8.22
2023-05-13T00:43:43.432Z,7.86
2023-05-13T00:53:45.534Z,7.97
2023-05-13T01:03:53.712Z,8.10
2023-05-13T01:14:08.649Z,7.54
2023-05-13T01:24:10.781Z,7.81
2023-05-13T01:34:13.984Z,7.39
2023-05-13T01:44:16.154Z,7.92
2023-05-13T01:54:19.741Z,7.37
2023-05-13T02:04:28.042Z,7.19
2023-05-13T02:14:30.968Z,7.30
2023-05-13T02:24:34.698Z,6.69
2023-05-13T02:34:36.714Z,6.53
2023-05-13T02:44:40.295Z,6.97
2023-05-13T02:54:42.788Z,6.92
2023-05-13T03:04:45.026Z,6.70
2023-05-13T03:14:47.355Z,6.64
2023-05-13T03:24:49.429Z,6.80
2023-05-13T03:34:52.330Z,6.57
2023-05-13T03:44:56.900Z,6.65
2023-05-13T03:54:59.084Z,6.59
2023-05-13T04:05:01.817Z,6.64
2023-05-13T04:15:04.354Z,6.39
2023-05-13T04:25:06.612Z,6.16
2023-05-13T04:35:09.880Z,6.45
2023-05-13T04:45:13.069Z,6.60
2023-05-13T04:55:15.374Z,6.62
2023-05-13T05:05:18.575Z,7.10
2023-05-13T05:15:21.536Z,6.98
2023-05-13T05:25:27.678Z,7.32
2023-05-13T05:35:29.897Z,7.23
2023-05-13T05:45:35.348Z,7.20
2023-05-13T05:55:39.728Z,7.48
2023-05-13T06:05:42.234Z,7.43
2023-05-13T06:15:44.722Z,7.89
2023-05-13T06:25:47.337Z,7.88
2023-05-13T06:35:49.742Z,8.80
2023-05-13T06:45:53.792Z,9.36
2023-05-13T06:55:56.372Z,9.59
2023-05-13T07:05:58.477Z,9.84
2023-05-13T07:16:02.240Z,9.68
2023-05-13T07:26:04.517Z,10.30
2023-05-13T07:36:08.565Z,11.34
2023-05-13T07:46:22.079Z,11.94
2023-05-13T07:56:24.219Z,11.87
2023-05-13T08:06:26.280Z,12.49
2023-05-13T08:16:28.515Z,12.77
2023-05-13T08:26:30.596Z,12.94
2023-05-13T08:36:32.670Z,13.28
2023-05-13T08:46:37.962Z,14.04
2023-05-13T08:56:40.033Z,14.05
2023-05-13T09:06:42.060Z,14.40
2023-05-13T09:16:44.210Z,14.79
2023-05-13T09:26:46.500Z,15.63
2023-05-13T09:36:55.555Z,15.24
2023-05-13T09:46:58.472Z,15.87
2023-05-13T09:57:01.771Z,16.20
2023-05-13T10:07:04.971Z,16.31
2023-05-13T10:17:07.879Z,16.44
2023-05-13T10:27:11.155Z,16.54
2023-05-13T10:37:35.492Z,16.65
2023-05-13T10:47:38.146Z,16.98
2023-05-13T10:57:40.653Z,17.01
2023-05-13T11:07:54.791Z,17.02
2023-05-13T11:17:57.277Z,17.54
2023-05-13T11:27:59.300Z,17.46
2023-05-13T11:38:03.911Z,18.22
2023-05-13T11:48:20.228Z,18.23
2023-05-13T11:58:23.340Z,19.15
2023-05-13T12:08:25.507Z,18.51
2023-05-13T12:18:27.576Z,17.16
2023-05-13T12:28:30.136Z,18.62
2023-05-13T12:38:32.359Z,17.56
2023-05-13T12:48:34.456Z,17.07
2023-05-13T12:58:36.558Z,18.12
2023-05-13T13:08:38.786Z,17.18
2023-05-13T13:18:42.424Z,18.34
2023-05-13T13:28:44.690Z,19.45
2023-05-13T13:38:46.751Z,19.68
2023-05-13T13:48:49.038Z,17.07
2023-05-13T13:58:51.452Z,15.61
2023-05-13T14:08:54.555Z,13.94
2023-05-13T14:18:56.578Z,13.67
2023-05-13T14:28:58.920Z,13.34
2023-05-13T14:39:01.361Z,12.06
2023-05-13T14:49:03.688Z,12.31
2023-05-13T14:59:05.803Z,12.91
2023-05-13T15:09:07.916Z,14.03
2023-05-13T15:19:10.342Z,14.20
2023-05-13T15:29:14.816Z,14.62
2023-05-13T15:39:18.125Z,14.91
2023-05-13T15:49:20.206Z,15.00
2023-05-13T15:59:22.740Z,14.78
2023-05-13T16:09:24.820Z,15.75
2023-05-13T16:19:27.022Z,16.61
2023-05-13T16:29:29.113Z,16.66
2023-05-13T16:39:32.949Z,16.74
2023-05-13T16:49:36.064Z,16.65
2023-05-13T16:59:38.198Z,15.15
2023-05-13T17:09:40.556Z,15.82
2023-05-13T17:19:42.685Z,15.77
2023-05-13T17:29:44.883Z,15.78
2023-05-13T17:39:46.964Z,14.93
2023-05-13T17:49:49.131Z,15.25
2023-05-13T17:59:52.391Z,14.99
2023-05-13T18:09:54.642Z,14.90
2023-05-13T18:19:56.698Z,14.91
2023-05-13T18:29:58.774Z,14.43
2023-05-13T18:40:01.852Z,14.21
2023-05-13T18:50:04.199Z,14.07
2023-05-13T19:00:06.957Z,13.60
2023-05-13T19:10:09.268Z,13.29
2023-05-13T19:20:11.666Z,12.83
2023-05-13T19:30:14.040Z,12.80
2023-05-13T19:40:16.340Z,12.62
2023-05-13T19:50:18.410Z,12.46
2023-05-13T20:00:20.592Z,12.37
2023-05-13T20:10:22.958Z,12.20
2023-05-13T20:20:25.437Z,12.01
2023-05-13T20:30:27.598Z,11.52
2023-05-13T20:40:29.826Z,11.20
2023-05-13T20:50:31.990Z,11.04
2023-05-13T21:00:34.192Z,11.08
2023-05-13T21:10:36.576Z,10.81
2023-05-13T21:20:38.577Z,10.88
2023-05-13T21:30:40.599Z,10.48
2023-05-13T21:40:43.431Z,10.55
2023-05-13T21:50:45.424Z,10.00
2023-05-13T22:00:47.594Z,9.63
2023-05-13T22:10:49.718Z,9.85
2023-05-13T22:20:51.941Z,9.64
2023-05-13T22:30:55.227Z,9.57
2023-05-13T22:40:57.248Z,9.50
2023-05-13T22:50:59.273Z,9.26
2023-05-13T23:01:01.330Z,8.97
2023-05-13T23:11:03.688Z,8.88
2023-05-13T23:21:05.862Z,8.66
2023-05-13T23:31:07.946Z,8.92
2023-05-13T23:41:10.244Z,8.73
2023-05-13T23:51:12.288Z,8.76
